Time;durP1;ratioP1;P1;durP2;ratioP2;P2;SDS_P1;SDS_P2;PMS_P1;PMS_P2;Temp;Humidity;BMP_temperature;BMP_pressure;BME280_temperature;BME280_humidity;BME280_pressure;Samples;Min_cycle;Max_cycle;Signal;HPM_P1;HPM_P2
2021/04/02 00:01:00;;;;;;;38.63;30.80;;;;;;;10.14;73.75;99150.26;1844294;77;21600;-67
2021/04/02 00:03:34;;;;;;;44.80;32.35;;;;;;;10.17;73.84;99144.02;1844325;77;20924;-67
2021/04/02 00:06:05;;;;;;;39.70;31.17;;;;;;;10.19;73.87;99139.55;1844309;77;21022;-67
2021/04/02 00:08:34;;;;;;;45.75;30.68;;;;;;;10.21;73.98;99140.30;1844299;77;21221;-67
2021/04/02 00:11:05;;;;;;;40.67;30.12;;;;;;;10.23;74.04;99134.52;1844241;77;21019;-67
2021/04/02 00:13:41;;;;;;;39.48;28.47;;;;;;;10.27;74.10;99138.58;1844312;77;20884;-68
2021/04/02 00:16:10;;;;;;;40.55;30.30;;;;;;;10.30;74.16;99140.97;1844197;77;21604;-68
2021/04/02 00:18:40;;;;;;;36.15;28.60;;;;;;;10.32;74.30;99135.20;1844283;77;21457;-68
2021/04/02 00:21:09;;;;;;;38.88;29.20;;;;;;;10.36;74.38;99130.14;1844280;77;21679;-67
2021/04/02 00:23:38;;;;;;;36.35;29.37;;;;;;;10.40;74.43;99130.27;1844259;77;20959;-68
2021/04/02 00:26:11;;;;;;;37.93;28.25;;;;;;;10.44;74.43;99126.52;1844400;77;21477;-67
2021/04/02 00:28:39;;;;;;;34.33;28.27;;;;;;;10.48;74.44;99136.23;1844372;77;21616;-67
2021/04/02 00:31:08;;;;;;;39.88;28.73;;;;;;;10.51;74.44;99125.62;1844430;77;21347;-67
2021/04/02 00:33:36;;;;;;;39.73;29.87;;;;;;;10.55;74.45;99123.16;1844303;77;21406;-67
2021/04/02 00:36:06;;;;;;;41.02;29.12;;;;;;;10.58;74.43;99124.25;1844188;77;21477;-68
2021/04/02 00:38:35;;;;;;;36.03;28.70;;;;;;;10.61;74.45;99118.36;1844452;77;21343;-67
2021/04/02 00:41:10;;;;;;;34.35;28.90;;;;;;;10.62;74.47;99116.12;1844228;77;21394;-68
2021/04/02 00:43:41;;;;;;;37.73;29.50;;;;;;;10.66;74.49;99122.77;1844444;77;21597;-67
2021/04/02 00:46:10;;;;;;;39.48;28.92;;;;;;;10.70;74.47;99116.87;1844343;77;21417;-68
2021/04/02 00:48:44;;;;;;;36.10;28.40;;;;;;;10.73;74.42;99119.73;1844222;77;20971;-67
2021/04/02 00:51:24;;;;;;;39.80;29.60;;;;;;;10.75;74.39;99119.16;1844346;77;21549;-67
2021/04/02 00:53:53;;;;;;;40.83;29.32;;;;;;;10.78;74.37;99116.34;1844398;77;21406;-66
2021/04/02 00:56:21;;;;;;;41.02;27.98;;;;;;;10.79;74.37;99118.00;1844271;77;21562;-67
2021/04/02 00:58:50;;;;;;;39.95;29.63;;;;;;;10.80;74.39;99112.66;1844374;77;21556;-67
2021/04/02 01:01:19;;;;;;;35.48;28.15;;;;;;;10.82;74.35;99107.34;1844204;77;21580;-66
2021/04/02 01:03:48;;;;;;;34.25;27.40;;;;;;;10.81;74.41;99102.60;1844326;77;21355;-67
2021/04/02 01:06:25;;;;;;;38.10;27.75;;;;;;;10.81;74.44;99103.91;1844369;77;21022;-64
2021/04/02 01:08:55;;;;;;;38.80;29.07;;;;;;;10.80;74.45;99093.59;1844299;77;20912;-66
2021/04/02 01:11:26;;;;;;;38.65;28.47;;;;;;;10.80;74.45;99095.73;1844300;77;21347;-67
2021/04/02 01:13:57;;;;;;;39.63;28.38;;;;;;;10.81;74.47;99093.48;1816248;77;20948;-67
2021/04/02 01:16:32;;;;;;;36.60;28.73;;;;;;;10.81;74.48;99085.67;1844251;77;21335;-67
2021/04/02 01:19:07;;;;;;;40.12;29.30;;;;;;;10.82;74.53;99093.84;1844165;77;20980;-66
2021/04/02 01:21:47;;;;;;;39.60;28.35;;;;;;;10.81;74.67;99081.77;1844342;77;21481;-67
2021/04/02 01:24:25;;;;;;;35.17;27.62;;;;;;;10.82;74.72;99079.52;1844275;77;23513;-66
2021/04/02 01:27:33;;;;;;;39.40;28.87;;;;;;;10.82;74.75;99074.78;1844224;77;20931;-67
2021/04/02 01:30:09;;;;;;;40.23;28.30;;;;;;;10.81;74.81;99075.26;1844216;77;20932;-66
2021/04/02 01:32:41;;;;;;;41.60;28.60;;;;;;;10.80;74.81;99062.34;1844258;77;20983;-66
2021/04/02 01:35:23;;;;;;;37.60;28.80;;;;;;;10.79;74.73;99060.25;1844154;77;21026;-66
2021/04/02 01:38:14;;;;;;;38.23;27.15;;;;;;;10.80;74.69;99063.65;1844253;77;20971;-66
2021/04/02 01:40:46;;;;;;;36.68;28.17;;;;;;;10.81;74.64;99055.73;1844325;77;21363;-66
2021/04/02 01:43:20;;;;;;;38.60;27.75;;;;;;;10.81;74.52;99057.03;1844274;77;21476;-65
2021/04/02 01:48:31;;;;;;;35.55;26.33;;;;;;;10.82;74.37;99060.00;1845034;77;20987;-66
2021/04/02 01:51:00;;;;;;;37.98;27.02;;;;;;;10.83;74.36;99060.83;1809447;79;21250;-66
2021/04/02 01:53:32;;;;;;;40.63;27.52;;;;;;;10.84;74.30;99057.28;1823920;78;21445;-64
2021/04/02 01:56:01;;;;;;;42.17;29.23;;;;;;;10.84;74.25;99061.19;1824106;78;21494;-64
2021/04/02 01:58:32;;;;;;;37.25;27.73;;;;;;;10.84;74.18;99061.19;1824035;78;21647;-65
2021/04/02 02:01:01;;;;;;;38.00;28.17;;;;;;;10.82;74.16;99059.16;1796602;78;21485;-65
2021/04/02 02:03:37;;;;;;;36.45;27.27;;;;;;;10.84;74.15;99063.79;1823882;78;22193;-64
2021/04/02 02:06:08;;;;;;;39.18;30.15;;;;;;;10.83;74.15;99065.56;1823762;78;21924;-68
2021/04/02 02:08:42;;;;;;;36.98;29.20;;;;;;;10.85;74.15;99068.89;1822867;78;21628;-67
2021/04/02 02:11:17;;;;;;;39.65;30.08;;;;;;;10.85;74.10;99067.59;1796545;78;21022;-67
2021/04/02 02:14:03;;;;;;;39.33;29.12;;;;;;;10.86;74.17;99069.72;1824047;78;20931;-67
2021/04/02 02:16:32;;;;;;;41.98;30.30;;;;;;;10.85;74.11;99070.19;1824009;78;21442;-66
2021/04/02 02:19:08;;;;;;;41.18;30.17;;;;;;;10.85;74.20;99057.64;1823893;78;21480;-66
2021/04/02 02:21:43;;;;;;;48.13;31.85;;;;;;;10.84;74.25;99065.92;1824048;78;20955;-67
2021/04/02 02:24:13;;;;;;;44.25;30.72;;;;;;;10.82;74.43;99063.06;1823977;78;20996;-67
2021/04/02 02:26:42;;;;;;;46.10;29.65;;;;;;;10.79;74.63;99055.03;1824123;78;20904;-66
2021/04/02 02:29:12;;;;;;;39.35;27.73;;;;;;;10.77;74.74;99056.92;1824053;78;21183;-67
2021/04/02 02:31:41;;;;;;;42.88;27.82;;;;;;;10.74;74.79;99057.61;1824079;78;21473;-67
2021/04/02 02:34:09;;;;;;;38.70;28.67;;;;;;;10.67;75.00;99050.23;1823935;78;20967;-67
2021/04/02 02:36:40;;;;;;;38.23;27.90;;;;;;;10.65;75.13;99057.33;1823291;78;21523;-66
2021/04/02 02:39:11;;;;;;;37.05;27.80;;;;;;;10.61;75.19;99053.28;1824054;78;21358;-66
2021/04/02 02:41:42;;;;;;;38.85;26.60;;;;;;;;;;1824048;78;21350;-67
2021/04/02 02:44:12;;;;;;;38.88;26.20;;;;;;;10.53;75.64;99049.09;1822770;78;20915;-67
2021/04/02 02:46:41;;;;;;;37.33;28.35;;;;;;;10.52;75.96;99046.59;1829715;78;21370;-65
2021/04/02 02:49:16;;;;;;;35.83;26.57;;;;;;;10.50;76.43;99041.49;1829786;78;20956;-66
2021/04/02 02:51:46;;;;;;;34.45;27.40;;;;;;;10.50;77.09;99037.59;1844228;77;20930;-64
2021/04/02 02:54:18;;;;;;;35.70;26.33;;;;;;;10.50;77.81;99038.89;1811190;79;22149;-64
2021/04/02 02:56:49;;;;;;;36.10;25.48;;;;;;;10.49;78.51;99030.72;1781622;80;20952;-64
2021/04/02 02:59:21;;;;;;;34.53;25.30;;;;;;;10.50;79.18;99032.86;1806293;77;20919;-63
2021/04/02 03:01:52;;;;;;;31.00;23.50;;;;;;;10.46;79.83;99023.13;1800811;79;20924;-63
2021/04/02 03:04:21;;;;;;;31.77;23.50;;;;;;;10.45;80.53;99012.36;1773182;80;21053;-63
2021/04/02 03:06:52;;;;;;;29.98;22.37;;;;;;;10.47;81.18;99003.14;1829831;78;21355;-66
2021/04/02 03:09:21;;;;;;;28.30;20.77;;;;;;;10.46;81.72;98985.39;1829688;78;21521;-68
2021/04/02 03:11:51;;;;;;;24.10;18.87;;;;;;;10.46;82.35;98994.97;1829744;77;21061;-68
2021/04/02 03:14:21;;;;;;;22.27;18.52;;;;;;;10.44;82.87;98983.84;1799866;78;21500;-69
2021/04/02 03:16:52;;;;;;;24.25;18.85;;;;;;;10.44;83.29;98983.84;1829832;78;21493;-68
2021/04/02 03:19:23;;;;;;;22.20;17.87;;;;;;;10.45;83.69;98982.91;1829795;78;22296;-69
2021/04/02 03:21:54;;;;;;;24.18;18.02;;;;;;;10.44;83.95;98985.14;1844194;77;21550;-69
2021/04/02 03:24:27;;;;;;;26.48;18.73;;;;;;;10.43;84.18;98992.12;1816209;77;21450;-68
2021/04/02 03:26:57;;;;;;;22.80;17.17;;;;;;;10.43;84.44;99009.03;1824085;78;20998;-68
2021/04/02 03:29:27;;;;;;;23.57;17.10;;;;;;;10.43;84.64;99018.61;1824089;78;20895;-68
2021/04/02 03:32:01;;;;;;;19.62;15.35;;;;;;;10.43;84.89;99022.05;1823975;78;22313;-69
2021/04/02 03:34:30;;;;;;;23.75;15.40;;;;;;;10.42;85.11;99020.86;1824033;78;20986;-68
2021/04/02 03:36:58;;;;;;;18.02;14.65;;;;;;;10.42;85.38;99007.84;1824060;78;21498;-68
2021/04/02 03:39:29;;;;;;;24.27;16.12;;;;;;;10.42;85.52;99011.75;1824091;78;20880;-69
2021/04/02 03:42:01;;;;;;;19.37;15.38;;;;;;;10.40;85.68;99011.86;1824979;77;20935;-69
2021/04/02 03:44:33;;;;;;;20.72;15.88;;;;;;;10.40;85.82;98996.24;1826612;77;21359;-68
2021/04/02 03:47:03;;;;;;;18.20;16.27;;;;;;;10.41;85.94;99002.28;1825201;78;21062;-69
2021/04/02 03:49:35;;;;;;;22.15;18.10;;;;;;;10.41;86.05;98995.30;1825104;78;21018;-68
2021/04/02 03:52:10;;;;;;;19.07;14.50;;;;;;;10.43;86.15;98994.72;1825095;78;21406;-68
2021/04/02 03:54:38;;;;;;;18.92;14.23;;;;;;;10.44;86.17;99002.06;1797139;78;20967;-68
2021/04/02 03:57:08;;;;;;;20.95;16.27;;;;;;;10.43;86.12;98999.93;1824112;78;21138;-68
2021/04/02 03:59:39;;;;;;;21.50;15.35;;;;;;;10.39;86.20;98998.52;1824046;78;20951;-68
2021/04/02 04:02:09;;;;;;;20.75;16.20;;;;;;;10.38;86.26;98992.95;1824198;78;21480;-68
2021/04/02 04:04:40;;;;;;;21.45;16.77;;;;;;;10.37;86.35;98997.80;1824100;78;20972;-68
2021/04/02 04:07:10;;;;;;;24.40;17.35;;;;;;;10.39;86.43;99004.19;1823499;78;21529;-69
2021/04/02 04:09:41;;;;;;;21.82;17.00;;;;;;;10.39;86.44;99004.19;1824089;78;20924;-70
2021/04/02 04:12:13;;;;;;;24.72;18.95;;;;;;;10.40;86.50;99008.45;1823781;78;21374;-70
2021/04/02 04:14:43;;;;;;;27.62;19.95;;;;;;;10.40;86.56;99010.55;1822814;78;21453;-64
2021/04/02 04:17:16;;;;;;;24.50;19.67;;;;;;;10.41;86.58;99014.82;1824034;78;21006;-64
2021/04/02 04:19:48;;;;;;;26.75;19.25;;;;;;;10.42;86.53;99008.67;1824133;78;20935;-64
2021/04/02 04:22:19;;;;;;;26.15;20.40;;;;;;;10.44;86.44;99009.40;1824067;78;21238;-64
2021/04/02 04:24:48;;;;;;;23.52;19.27;;;;;;;10.46;86.42;99013.19;1824040;78;21604;-64
2021/04/02 04:27:16;;;;;;;24.87;19.65;;;;;;;10.47;86.41;99014.85;1824098;78;21561;-64
2021/04/02 04:29:50;;;;;;;25.88;20.52;;;;;;;10.47;86.44;99020.06;1824152;78;21572;-64
2021/04/02 04:32:17;;;;;;;26.80;20.48;;;;;;;10.49;86.39;99029.89;1823817;78;21568;-64
2021/04/02 04:34:47;;;;;;;28.25;20.77;;;;;;;10.48;86.42;99031.66;1824201;78;22106;-64
2021/04/02 04:37:19;;;;;;;24.98;18.67;;;;;;;10.48;86.51;99039.47;1824053;78;21062;-66
2021/04/02 04:39:48;;;;;;;21.42;17.32;;;;;;;10.46;86.61;99036.62;1824083;78;20908;-67
2021/04/02 04:42:19;;;;;;;24.15;18.87;;;;;;;10.45;86.88;99049.27;1824042;78;21591;-66
2021/04/02 04:44:49;;;;;;;22.20;16.48;;;;;;;10.45;87.14;99062.28;1824205;78;20891;-65
2021/04/02 04:47:17;;;;;;;20.30;16.15;;;;;;;10.44;87.38;99068.42;1824378;78;22466;-66
2021/04/02 04:49:46;;;;;;;18.48;14.43;;;;;;;10.42;87.80;99069.83;1800334;79;21379;-66
2021/04/02 04:52:16;;;;;;;17.02;13.15;;;;;;;10.41;88.41;99065.56;1816720;79;21586;-65
2021/04/02 04:54:46;;;;;;;16.90;13.25;;;;;;;10.39;88.92;99076.59;1816781;79;20969;-64
2021/04/02 04:57:15;;;;;;;15.18;11.97;;;;;;;10.38;89.19;99075.39;1816175;79;21091;-64
2021/04/02 04:59:43;;;;;;;15.98;11.45;;;;;;;10.35;89.28;99073.84;1803429;77;21486;-65
2021/04/02 05:02:12;;;;;;;19.70;11.83;;;;;;;10.32;89.20;99064.94;1808007;79;21590;-66
2021/04/02 05:04:41;;;;;;;20.10;12.65;;;;;;;10.27;89.05;99061.36;1796349;79;20986;-66
2021/04/02 05:07:09;;;;;;;17.82;11.45;;;;;;;10.24;88.81;99050.33;1766516;80;21087;-67
2021/04/02 05:09:38;;;;;;;16.23;10.43;;;;;;;10.21;88.95;99031.03;1802851;78;21135;-66
2021/04/02 05:12:08;;;;;;;17.98;12.68;;;;;;;10.18;89.18;99009.11;1830522;78;21190;-65
2021/04/02 05:14:38;;;;;;;13.00;10.18;;;;;;;10.13;89.08;99017.70;1797033;78;21057;-67
2021/04/02 05:17:07;;;;;;;12.68;9.88;;;;;;;10.07;89.84;99001.22;1819830;77;21073;-68
2021/04/02 05:19:36;;;;;;;11.10;9.73;;;;;;;9.96;91.83;98989.83;1815466;78;21687;-67
2021/04/02 05:22:05;;;;;;;12.55;9.85;;;;;;;9.83;93.39;98973.88;1831766;78;20939;-66
2021/04/02 05:24:34;;;;;;;12.58;9.45;;;;;;;9.71;94.92;98987.25;1832209;78;21194;-65
2021/04/02 05:27:05;;;;;;;11.93;9.20;;;;;;;9.63;95.16;98979.15;1827484;77;21648;-67
2021/04/02 05:29:33;;;;;;;10.70;9.33;;;;;;;9.51;95.24;98949.66;1823297;77;20933;-67
2021/04/02 05:32:02;;;;;;;14.73;9.53;;;;;;;9.41;95.34;98920.05;1833042;77;20925;-66
2021/04/02 05:34:31;;;;;;;14.03;9.65;;;;;;;9.33;95.68;98921.87;1820693;78;21012;-67
2021/04/02 05:37:01;;;;;;;16.15;9.13;;;;;;;9.29;95.88;98919.58;1813566;77;21385;-68
2021/04/02 05:39:31;;;;;;;10.72;9.03;;;;;;;9.21;95.97;98909.71;1821230;78;20921;-66
2021/04/02 05:42:03;;;;;;;12.20;9.95;;;;;;;9.15;96.00;98911.92;1827503;77;21058;-67
2021/04/02 05:44:35;;;;;;;12.88;9.73;;;;;;;9.10;96.19;98933.48;1832068;78;21370;-68
2021/04/02 05:47:05;;;;;;;58.23;28.98;;;;;;;9.05;96.17;98951.95;1831889;78;21389;-66
2021/04/02 05:49:34;;;;;;;26.97;14.90;;;;;;;8.98;96.19;99007.36;1818320;78;22104;-66
2021/04/02 05:52:04;;;;;;;15.28;11.33;;;;;;;8.93;95.75;99032.78;1799435;78;21029;-67
2021/04/02 05:54:37;;;;;;;14.78;10.60;;;;;;;8.88;95.28;99040.50;1795672;79;21643;-67
2021/04/02 05:57:09;;;;;;;22.95;14.25;;;;;;;8.87;94.67;99031.88;1794448;79;21050;-66
2021/04/02 05:59:42;;;;;;;12.30;8.80;;;;;;;8.85;94.03;99038.94;1796800;79;20938;-67
2021/04/02 06:02:12;;;;;;;11.33;9.10;;;;;;;8.84;94.09;99033.37;1797017;79;21505;-67
2021/04/02 06:04:40;;;;;;;9.35;7.80;;;;;;;8.88;94.30;99041.80;1782587;79;21587;-67
2021/04/02 06:07:08;;;;;;;8.85;7.08;;;;;;;8.89;93.59;99044.30;1816665;78;21501;-67
2021/04/02 06:09:37;;;;;;;18.48;10.60;;;;;;;8.86;92.63;99056.64;1828692;78;21611;-68
2021/04/02 06:12:10;;;;;;;15.53;9.40;;;;;;;8.80;92.04;99060.92;1829286;78;21084;-68
2021/04/02 06:14:39;;;;;;;18.17;11.75;;;;;;;8.73;91.49;99075.25;1832774;77;22220;-68
2021/04/02 06:17:07;;;;;;;44.70;22.37;;;;;;;8.66;91.74;99073.51;1818863;77;21662;-66
2021/04/02 06:19:36;;;;;;;30.27;17.48;;;;;;;8.60;91.06;99068.23;1818595;77;21607;-66
2021/04/02 06:22:05;;;;;;;27.15;13.38;;;;;;;8.53;90.46;99066.95;1828080;78;21613;-65
2021/04/02 06:24:47;;;;;;;28.77;13.35;;;;;;;8.45;90.59;99075.68;1824894;77;21095;-69
2021/04/02 06:56:29;;;;;;;8.60;7.30;;;;;;;8.09;89.90;99142.75;1856356;77;22336;-61
2021/04/02 06:59:00;;;;;;;11.57;7.92;;;;;;;8.06;90.10;99149.41;1855891;77;21522;-63
2021/04/02 07:01:33;;;;;;;8.13;6.85;;;;;;;8.04;89.99;99150.34;1855644;77;21181;-59
2021/04/02 07:04:02;;;;;;;10.78;7.05;;;;;;;8.02;90.30;99150.89;1872850;76;21018;-61
2021/04/02 07:06:30;;;;;;;52.45;36.85;;;;;;;8.02;90.38;99155.25;1873224;76;21497;-64
2021/04/02 07:09:00;;;;;;;17.48;13.58;;;;;;;8.02;90.01;99166.45;1864783;76;20901;-65
2021/04/02 07:11:29;;;;;;;9.80;8.13;;;;;;;7.98;89.57;99170.64;1834210;76;21459;-66
2021/04/02 07:13:58;;;;;;;9.03;8.10;;;;;;;7.92;89.54;99170.53;1797794;78;21900;-63
2021/04/02 07:16:28;;;;;;;7.00;6.30;;;;;;;7.88;89.44;99168.21;1825725;77;21019;-61
2021/04/02 07:18:57;;;;;;;7.15;6.53;;;;;;;7.84;89.31;99172.73;1811712;78;21436;-66
2021/04/02 07:21:26;;;;;;;7.85;6.03;;;;;;;7.79;89.39;99172.63;1825935;78;21654;-66
2021/04/02 07:23:54;;;;;;;7.78;5.97;;;;;;;7.77;89.68;99176.61;1851228;77;21439;-63
2021/04/02 07:26:23;;;;;;;5.33;4.83;;;;;;;7.76;89.69;99182.71;1789292;76;22175;-61
2021/04/02 07:28:51;;;;;;;4.47;4.17;;;;;;;7.75;89.53;99185.39;1863432;77;21569;-60
2021/04/02 07:31:21;;;;;;;4.92;4.42;;;;;;;7.69;89.03;99182.69;1827956;78;20993;-59
2021/04/02 07:33:50;;;;;;;5.03;4.03;;;;;;;7.60;88.80;99179.33;1860941;77;20877;-64
2021/04/02 07:36:20;;;;;;;4.80;4.30;;;;;;;7.48;88.85;99180.05;1829101;78;21494;-66
2021/04/02 07:38:50;;;;;;;13.40;11.25;;;;;;;7.39;89.11;99191.77;1844904;77;21345;-66
2021/04/02 07:41:18;;;;;;;9.35;7.47;;;;;;;7.31;89.48;99190.06;1818766;78;21484;-59
2021/04/02 07:43:51;;;;;;;9.53;7.15;;;;;;;7.25;88.93;99193.83;1813889;78;20977;-63
2021/04/02 07:46:27;;;;;;;5.20;4.22;;;;;;;7.17;88.79;99192.14;1813193;78;21519;-65
2021/04/02 07:49:08;;;;;;;3.37;2.95;;;;;;;7.15;88.09;99187.52;1829928;77;21586;-65
2021/04/02 07:51:49;;;;;;;2.83;2.62;;;;;;;7.09;87.42;99194.32;1834195;78;21187;-60
2021/04/02 07:54:37;;;;;;;2.52;2.33;;;;;;;7.04;87.25;99197.62;1824957;78;21811;-59
2021/04/02 07:57:13;;;;;;;2.30;2.12;;;;;;;6.95;86.75;99185.17;1823829;78;21566;-59
2021/04/02 07:59:45;;;;;;;2.17;2.08;;;;;;;6.81;86.92;99196.73;1799514;78;20915;-61
2021/04/02 08:02:19;;;;;;;2.33;1.85;;;;;;;6.69;86.67;99205.55;1799745;78;21421;-64
2021/04/02 08:04:53;;;;;;;2.10;2.00;;;;;;;6.57;85.76;99195.01;1825054;78;21128;-64
2021/04/02 08:07:43;;;;;;;3.95;2.60;;;;;;;6.43;86.46;99185.39;1827163;78;20903;-64
2021/04/02 08:10:14;;;;;;;4.78;2.33;;;;;;;6.38;86.74;99182.69;1827071;78;21042;-63
2021/04/02 08:12:42;;;;;;;5.20;2.80;;;;;;;6.34;86.31;99191.90;1826856;78;21042;-63
2021/04/02 08:15:16;;;;;;;3.58;2.80;;;;;;;6.27;86.13;99188.41;1827143;78;21583;-63
2021/04/02 08:17:45;;;;;;;3.30;2.98;;;;;;;6.21;86.24;99192.15;1811302;78;21271;-64
2021/04/02 08:20:17;;;;;;;3.10;2.80;;;;;;;6.13;85.90;99189.58;1797909;78;21647;-65
2021/04/02 08:22:51;;;;;;;3.92;2.67;;;;;;;6.05;86.17;99202.88;1814566;78;21034;-60
2021/04/02 08:25:22;;;;;;;3.17;2.90;;;;;;;5.96;86.47;99195.63;1802972;78;21129;-61
2021/04/02 08:27:50;;;;;;;2.62;2.42;;;;;;;5.89;86.89;99205.88;1762651;80;21541;-61
2021/04/02 08:30:19;;;;;;;2.30;2.20;;;;;;;5.84;87.03;99206.08;1824398;78;21560;-64
2021/04/02 08:32:51;;;;;;;2.85;2.65;;;;;;;5.78;86.77;99206.38;1791166;79;21009;-61
2021/04/02 08:35:20;;;;;;;2.30;2.10;;;;;;;5.72;87.10;99205.39;1822423;78;20981;-63
2021/04/02 08:38:05;;;;;;;2.60;2.40;;;;;;;5.72;87.24;99207.14;1851224;77;21052;-65
2021/04/02 08:40:35;;;;;;;2.62;2.42;;;;;;;5.71;87.37;99205.01;1826669;78;21057;-66
2021/04/02 08:43:05;;;;;;;2.25;2.05;;;;;;;5.69;87.57;99190.88;1851067;77;22863;-65
2021/04/02 08:45:35;;;;;;;3.77;2.50;;;;;;;5.69;87.20;99191.33;1826129;78;20954;-66
2021/04/02 08:48:05;;;;;;;2.02;1.92;;;;;;;5.69;87.22;99193.91;1817324;78;21028;-65
2021/04/02 08:50:34;;;;;;;2.70;2.50;;;;;;;5.67;86.93;99203.03;1816310;78;21639;-63
2021/04/02 08:53:05;;;;;;;2.75;2.50;;;;;;;5.65;86.97;99200.14;1823698;78;21022;-64
2021/04/02 08:55:34;;;;;;;2.67;2.47;;;;;;;5.62;86.90;99200.29;1825013;78;21243;-61
2021/04/02 08:58:03;;;;;;;2.02;1.90;;;;;;;5.63;87.05;99208.42;1826185;78;21196;-62
2021/04/02 09:00:31;;;;;;;2.92;2.27;;;;;;;5.61;86.74;99200.75;1826433;78;21025;-64
2021/04/02 09:03:00;;;;;;;1.67;1.57;;;;;;;5.59;86.79;99219.38;1820763;77;21648;-66
2021/04/02 09:05:28;;;;;;;1.90;1.80;;;;;;;5.58;86.76;99219.45;1824122;78;21009;-63
2021/04/02 09:07:57;;;;;;;2.25;2.05;;;;;;;5.57;86.83;99217.78;1827112;78;21930;-61
2021/04/02 09:10:26;;;;;;;4.95;2.70;;;;;;;5.59;86.88;99214.67;1860468;76;21430;-61
2021/04/02 09:12:54;;;;;;;3.47;2.90;;;;;;;5.59;86.61;99219.38;1813727;77;21763;-65
2021/04/02 09:15:30;;;;;;;2.58;2.37;;;;;;;5.60;86.54;99218.89;1843472;76;21560;-65
2021/04/02 09:18:28;;;;;;;2.58;2.35;;;;;;;5.59;86.29;99221.97;1804831;77;20953;-64
2021/04/02 09:20:57;;;;;;;5.72;4.12;;;;;;;5.56;85.83;99217.41;1794157;80;21655;-63
2021/04/02 09:23:25;;;;;;;5.22;4.10;;;;;;;5.51;86.37;99223.24;1810876;79;21566;-65
2021/04/02 09:25:54;;;;;;;4.50;4.10;;;;;;;5.49;86.10;99218.61;1809440;79;20981;-66
2021/04/02 09:28:27;;;;;;;2.20;2.10;;;;;;;5.44;86.19;99212.37;1808404;79;21104;-64
2021/04/02 09:31:24;;;;;;;2.00;1.80;;;;;;;5.42;86.04;99207.73;1818167;79;21625;-62
2021/04/02 09:33:57;;;;;;;2.17;2.08;;;;;;;5.39;85.74;99212.20;1822074;77;21142;-66
2021/04/02 09:36:29;;;;;;;1.70;1.60;;;;;;;5.32;85.80;99212.95;1848540;77;21068;-62
2021/04/02 09:39:21;;;;;;;1.80;1.70;;;;;;;5.27;85.76;99217.03;1833118;77;20989;-64
2021/04/02 09:41:59;;;;;;;2.70;2.50;;;;;;;5.21;85.45;99207.45;1824811;77;21034;-62
2021/04/02 09:44:37;;;;;;;2.00;1.90;;;;;;;5.16;85.93;99208.16;1830829;78;20975;-62
2021/04/02 09:47:14;;;;;;;2.22;2.12;;;;;;;5.16;86.25;99215.89;1830995;78;21194;-64
2021/04/02 09:49:43;;;;;;;1.80;1.70;;;;;;;5.15;86.40;99220.22;1858574;76;21064;-59
2021/04/02 09:52:11;;;;;;;1.80;1.70;;;;;;;5.15;86.33;99226.67;1857575;77;21448;-61
2021/04/02 09:54:40;;;;;;;1.70;1.60;;;;;;;5.14;85.94;99221.13;1848190;77;21023;-60
2021/04/02 09:57:09;;;;;;;1.77;1.67;;;;;;;5.10;85.94;99231.66;1855228;77;21447;-64
2021/04/02 09:59:38;;;;;;;1.90;1.80;;;;;;;5.08;86.16;99233.02;1855522;77;21173;-65
2021/04/02 10:02:07;;;;;;;1.90;1.80;;;;;;;5.06;86.15;99236.58;1855487;77;20957;-62
2021/04/02 10:04:35;;;;;;;2.15;1.95;;;;;;;5.02;86.09;99234.14;1854199;77;21641;-59
2021/04/02 10:07:05;;;;;;;2.40;2.30;;;;;;;4.99;86.35;99238.60;1854661;77;21653;-64
2021/04/02 10:09:34;;;;;;;2.85;2.30;;;;;;;4.98;86.64;99234.34;1854175;77;21589;-64
2021/04/02 10:12:04;;;;;;;2.85;2.65;;;;;;;4.99;86.77;99236.02;1855137;77;22779;-62
2021/04/02 10:14:33;;;;;;;2.40;2.20;;;;;;;5.01;86.96;99238.08;1850647;77;20981;-62
2021/04/02 10:17:09;;;;;;;2.60;2.17;;;;;;;5.01;87.11;99238.08;1815016;79;21343;-63
2021/04/02 10:19:35;;;;;;;3.67;1.92;;;;;;;5.03;87.39;99238.84;1814326;79;21013;-64
2021/04/02 10:22:06;;;;;;;2.65;2.20;;;;;;;5.01;87.59;99239.37;1846867;77;20984;-63
2021/04/02 10:24:35;;;;;;;2.50;2.30;;;;;;;5.02;87.68;99243.17;1845813;77;22072;-62
2021/04/02 10:27:05;;;;;;;2.40;2.20;;;;;;;5.01;88.10;99243.23;1815631;79;20943;-64
2021/04/02 10:29:34;;;;;;;2.22;2.00;;;;;;;5.03;88.10;99247.42;1817645;78;21086;-62
2021/04/02 10:32:09;;;;;;;2.67;2.47;;;;;;;5.04;88.24;99246.97;1801433;79;21609;-63
2021/04/02 10:34:37;;;;;;;2.50;2.30;;;;;;;5.05;88.48;99254.26;1800751;79;21503;-63
2021/04/02 10:37:06;;;;;;;2.75;2.55;;;;;;;5.05;88.80;99252.97;1801083;79;22330;-63
2021/04/02 10:39:35;;;;;;;2.77;2.52;;;;;;;5.09;89.19;99251.47;1800859;79;21192;-64
2021/04/02 10:42:05;;;;;;;3.22;2.90;;;;;;;5.13;89.19;99254.30;1808413;77;21065;-66
2021/04/02 10:44:33;;;;;;;5.15;3.27;;;;;;;5.16;88.74;99264.93;1849051;77;20992;-66
2021/04/02 10:47:02;;;;;;;4.80;3.00;;;;;;;5.14;88.62;99257.26;1820558;78;21644;-62
2021/04/02 10:49:31;;;;;;;3.92;3.47;;;;;;;5.15;88.77;99260.67;1823229;78;21361;-64
2021/04/02 10:52:00;;;;;;;3.70;3.40;;;;;;;5.15;89.25;99265.38;1790818;80;21061;-64
2021/04/02 10:54:28;;;;;;;2.90;2.70;;;;;;;5.22;89.45;99265.91;1808099;78;21528;-66
2021/04/02 10:56:57;;;;;;;3.30;3.00;;;;;;;5.30;89.43;99267.68;1822247;78;21742;-62
2021/04/02 10:59:25;;;;;;;5.33;2.80;;;;;;;5.36;88.87;99272.56;1798039;78;21645;-62
2021/04/02 11:01:53;;;;;;;4.08;2.83;;;;;;;5.39;88.87;99276.75;1813881;78;22088;-61
2021/04/02 11:04:22;;;;;;;3.50;3.20;;;;;;;5.43;88.24;99277.83;1823188;78;21023;-62
2021/04/02 11:06:50;;;;;;;4.95;3.10;;;;;;;5.41;87.95;99269.77;1823049;78;21644;-61
2021/04/02 11:09:19;;;;;;;5.35;3.50;;;;;;;5.39;88.00;99267.25;1822077;78;21591;-59
2021/04/02 11:11:47;;;;;;;3.25;2.95;;;;;;;5.37;88.29;99271.66;1823586;78;21643;-60
2021/04/02 11:14:18;;;;;;;3.00;2.70;;;;;;;5.41;88.68;99273.64;1823847;78;22304;-62
2021/04/02 11:16:49;;;;;;;2.98;2.60;;;;;;;5.45;88.66;99269.55;1823424;78;21629;-62
2021/04/02 11:19:17;;;;;;;2.92;2.62;;;;;;;5.44;88.04;99264.00;1825334;78;21878;-63
2021/04/02 11:21:47;;;;;;;2.67;2.30;;;;;;;5.42;88.00;99258.08;1824011;78;20961;-63
2021/04/02 11:24:15;;;;;;;3.17;2.50;;;;;;;5.43;87.42;99273.11;1852123;77;21739;-63
2021/04/02 11:26:44;;;;;;;4.70;2.72;;;;;;;5.41;87.54;99274.93;1850527;77;23509;-59
2021/04/02 11:29:12;;;;;;;4.33;2.58;;;;;;;5.41;88.00;99279.64;1849095;76;20891;-60
2021/04/02 11:31:41;;;;;;;5.72;3.40;;;;;;;5.40;87.39;99284.87;1850474;76;21554;-61
2021/04/02 11:34:09;;;;;;;2.30;2.10;;;;;;;5.33;87.00;99286.45;1847023;77;21685;-62
2021/04/02 11:36:38;;;;;;;5.33;2.70;;;;;;;5.26;86.65;99281.64;1850031;77;21641;-60
2021/04/02 11:39:09;;;;;;;2.80;2.25;;;;;;;5.18;86.28;99288.47;1779510;80;20974;-64
2021/04/02 11:41:38;;;;;;;3.90;3.37;;;;;;;5.11;86.44;99287.07;1800572;79;20961;-61
2021/04/02 11:44:07;;;;;;;3.47;2.70;;;;;;;5.06;86.71;99291.60;1779724;80;21583;-61
2021/04/02 11:46:35;;;;;;;3.47;2.58;;;;;;;5.02;86.63;99302.97;1803140;78;21082;-60
2021/04/02 11:49:04;;;;;;;3.67;2.52;;;;;;;4.93;86.88;99300.34;1857597;76;21031;-59
2021/04/02 11:51:33;;;;;;;3.15;2.70;;;;;;;4.88;87.19;99307.89;1857208;76;21658;-60
2021/04/02 11:54:01;;;;;;;3.65;2.70;;;;;;;4.85;87.47;99308.03;1852464;76;21657;-61
2021/04/02 11:56:29;;;;;;;4.85;3.05;;;;;;;4.83;87.84;99304.68;1812718;78;21634;-60
2021/04/02 11:58:59;;;;;;;2.35;2.15;;;;;;;4.82;88.32;99305.13;1863417;76;20938;-62
2021/04/02 12:01:27;;;;;;;2.65;2.40;;;;;;;4.82;88.76;99309.00;1854506;76;21539;-58
2021/04/02 12:03:56;;;;;;;2.30;2.10;;;;;;;4.87;88.88;99310.09;1850827;76;22144;-58
2021/04/02 12:06:25;;;;;;;2.80;2.25;;;;;;;4.89;88.78;99309.57;1847271;76;21088;-60
2021/04/02 12:08:55;;;;;;;2.65;2.45;;;;;;;4.91;88.66;99313.76;1859464;76;21028;-60
2021/04/02 12:11:23;;;;;;;2.33;2.20;;;;;;;4.90;88.79;99306.92;1833134;76;21652;-60
2021/04/02 12:13:53;;;;;;;4.12;2.60;;;;;;;4.93;88.59;99304.66;1855532;76;20985;-59
2021/04/02 12:16:22;;;;;;;3.10;2.80;;;;;;;4.96;88.67;99305.81;1823656;78;21932;-62
2021/04/02 12:18:52;;;;;;;2.70;2.50;;;;;;;4.96;88.36;99305.36;1822404;78;21039;-60